Time;durP1;ratioP1;P1;durP2;ratioP2;P2;SDS_P1;SDS_P2;PMS_P1;PMS_P2;Temp;Humidity;BMP_temperature;BMP_pressure;BME280_temperature;BME280_humidity;BME280_pressure;Samples;Min_cycle;Max_cycle;Signal;HPM_P1;HPM_P2
2021/04/25 00:04:14;;;;;;;;;;;9.40;66.70;;;7.67;47.04;95890.34;10414791;28;1986;-85
2021/04/25 00:09:16;;;;;;;;;;;8.70;66.80;;;7.53;47.86;95879.25;10411431;28;1978;-85
2021/04/25 00:14:18;;;;;;;;;;;8.70;67.10;;;7.48;47.40;95881.88;10452905;28;1965;-85
2021/04/25 00:19:20;;;;;;;;;;;8.60;67.20;;;7.36;48.06;95875.03;10455567;28;2004;-85
2021/04/25 00:24:21;;;;;;;;;;;8.50;67.60;;;7.26;48.31;95860.50;10449806;28;2023;-87
2021/04/25 00:29:23;;;;;;;;;;;9.20;68.20;;;7.26;48.68;95859.72;10431034;28;1790;-86
2021/04/25 00:34:25;;;;;;;;;;;8.40;68.10;;;7.21;48.22;95856.97;10453067;28;2026;-87
2021/04/25 00:39:27;;;;;;;;;;;9.70;68.90;;;7.44;47.68;95862.03;10440575;28;1978;-87
2021/04/25 00:44:29;;;;;;;;;;;8.90;68.90;;;7.30;48.55;95853.59;10432234;28;1879;-85
2021/04/25 00:49:31;;;;;;;;;;;8.40;68.50;;;7.22;48.84;95850.56;10420375;28;2040;-87
2021/04/25 00:54:33;;;;;;;;;;;8.30;68.70;;;7.20;48.82;95848.16;10408938;28;2124;-85
2021/04/25 00:59:35;;;;;;;;;;;9.70;69.40;;;7.05;48.69;95851.44;10420764;28;2399;-87
2021/04/25 01:04:37;;;;;;;;;;;8.20;68.60;;;7.00;48.78;95867.44;10416693;28;3164;-86
2021/04/25 01:09:40;;;;;;;;;;;9.20;69.10;;;6.88;49.58;95866.72;10435902;28;2334;-85
2021/04/25 01:14:42;;;;;;;;;;;8.60;69.30;;;6.71;50.12;95865.97;10455689;28;1942;-85
2021/04/25 01:19:44;;;;;;;;;;;8.70;70.00;;;6.62;50.72;95867.44;10392153;28;1851;-85
2021/04/25 01:24:46;;;;;;;;;;;7.90;70.40;;;6.45;51.86;95867.47;10399315;28;2535;-84
2021/04/25 01:29:47;;;;;;;;;;;8.70;71.70;;;6.39;52.02;95869.25;10400854;28;2048;-86
2021/04/25 01:34:49;;;;;;;;;;;7.60;71.50;;;6.46;52.50;95875.22;10422024;28;1612;-84
2021/04/25 01:39:51;;;;;;;;;;;7.50;72.30;;;6.32;53.37;95873.97;10394254;28;2570;-84
2021/04/25 01:44:53;;;;;;;;;;;7.50;73.30;;;6.26;53.70;95880.28;10416345;28;2618;-85
2021/04/25 01:49:55;;;;;;;;;;;7.40;73.80;;;6.20;54.43;95886.56;10427031;28;2250;-85
2021/04/25 01:54:57;;;;;;;;;;;7.30;74.50;;;6.00;55.21;95891.59;10410424;28;1683;-85
2021/04/25 01:59:59;;;;;;;;;;;7.10;74.90;;;5.98;55.71;95883.84;10405090;28;2090;-84
2021/04/25 02:05:01;;;;;;;;;;;7.10;75.50;;;6.04;55.94;95887.38;10425150;28;2099;-82
2021/04/25 02:10:03;;;;;;;;;;;7.10;76.40;;;5.80;56.67;95878.69;10431335;28;2096;-83
2021/04/25 02:15:05;;;;;;;;;;;8.30;77.20;;;5.89;56.90;95885.25;10435077;28;2086;-85
2021/04/25 02:20:07;;;;;;;;;;;6.90;77.20;;;5.96;56.69;95876.06;10414255;28;2004;-85
2021/04/25 02:25:09;;;;;;;;;;;7.00;77.30;;;5.94;56.85;95878.16;10427164;28;2060;-85
2021/04/25 02:30:11;;;;;;;;;;;7.00;77.70;;;5.88;57.51;95876.44;10420801;28;2044;-84
2021/04/25 02:35:13;;;;;;;;;;;6.90;77.80;;;6.00;57.42;95875.59;10405281;28;2043;-85
2021/04/25 02:40:15;;;;;;;;;;;7.60;78.30;;;6.14;56.96;95890.22;10421257;28;2130;-87
2021/04/25 02:45:17;;;;;;;;;;;7.00;78.20;;;6.09;57.48;95890.13;10410740;28;2050;-86
2021/04/25 02:50:19;;;;;;;;;;;7.10;78.40;;;6.13;57.63;95885.94;10405402;28;2111;-84
2021/04/25 02:55:20;;;;;;;;;;;7.10;78.70;;;6.12;57.98;95879.78;10406669;28;1933;-86
2021/04/25 03:00:22;;;;;;;;;;;7.60;79.20;;;5.96;58.58;95885.91;10421426;28;2137;-84
2021/04/25 03:05:24;;;;;;;;;;;7.00;79.10;;;5.97;58.47;95875.00;10419484;28;2107;-84
2021/04/25 03:10:26;;;;;;;;;;;7.00;79.60;;;5.92;59.05;95888.28;10400437;28;2129;-85
2021/04/25 03:15:28;;;;;;;;;;;7.00;80.00;;;5.85;59.76;95879.59;10421878;28;2237;-86
2021/04/25 03:20:30;;;;;;;;;;;6.90;80.60;;;5.86;59.83;95886.53;10415343;28;2145;-85
2021/04/25 03:25:32;;;;;;;;;;;6.90;81.00;;;5.71;60.79;95880.91;10403856;28;2048;-84
2021/04/25 03:30:34;;;;;;;;;;;6.80;81.50;;;5.66;61.39;95880.81;10401753;28;2051;-85
2021/04/25 03:35:36;;;;;;;;;;;6.70;82.20;;;5.61;61.78;95875.44;10397451;28;1849;-85
2021/04/25 03:40:38;;;;;;;;;;;6.70;82.90;;;5.60;62.39;95876.47;10403108;28;2042;-84
2021/04/25 03:45:40;;;;;;;;;;;6.60;83.30;;;5.52;62.76;95877.66;10402249;28;2032;-86
2021/04/25 03:50:42;;;;;;;;;;;7.60;84.20;;;5.64;62.61;95869.59;10397320;28;2298;-85
2021/04/25 03:55:43;;;;;;;;;;;6.50;84.40;;;5.61;62.70;95870.09;10396633;28;2012;-84
2021/04/25 04:00:45;;;;;;;;;;;6.70;84.70;;;5.41;63.78;95878.53;10408962;28;2000;-85
2021/04/25 04:05:47;;;;;;;;;;;6.60;84.90;;;5.28;64.66;95884.13;10424852;28;1572;-86
2021/04/25 04:10:49;;;;;;;;;;;6.40;85.60;;;5.15;65.51;95867.38;10408636;28;2180;-84
2021/04/25 04:15:51;;;;;;;;;;;7.00;86.60;;;5.13;65.42;95876.66;10402278;28;2115;-86
2021/04/25 04:20:53;;;;;;;;;;;6.20;86.90;;;5.13;66.09;95879.31;10413555;28;2236;-85
2021/04/25 04:25:54;;;;;;;;;;;7.00;88.00;;;5.23;65.55;95886.72;10401149;28;2181;-84
2021/04/25 04:30:56;;;;;;;;;;;6.20;87.50;;;5.25;65.81;95896.06;10413584;28;2162;-85
2021/04/25 04:35:58;;;;;;;;;;;6.80;87.80;;;5.34;65.26;95909.81;10400377;28;2179;-84
2021/04/25 04:41:00;;;;;;;;;;;6.30;87.70;;;5.33;65.07;95914.34;10398054;28;2443;-85
2021/04/25 04:46:02;;;;;;;;;;;6.30;87.50;;;5.47;65.29;95914.06;10387375;28;2473;-84
2021/04/25 04:51:04;;;;;;;;;;;7.10;88.30;;;5.57;64.99;95903.59;10396931;28;2477;-85
2021/04/25 04:56:06;;;;;;;;;;;6.90;88.10;;;5.67;64.61;95909.94;10396047;28;1817;-84
2021/04/25 05:01:08;;;;;;;;;;;6.50;87.70;;;5.94;64.06;95904.84;10390911;28;1887;-87
2021/04/25 05:06:10;;;;;;;;;;;6.80;87.60;;;6.00;63.61;95912.94;10410995;28;2115;-85
2021/04/25 05:11:11;;;;;;;;;;;6.90;87.20;;;6.40;62.38;95929.59;10421517;28;1986;-83
2021/04/25 05:16:13;;;;;;;;;;;7.10;86.60;;;6.82;61.16;95931.84;10398590;28;2176;-85
2021/04/25 05:21:15;;;;;;;;;;;7.40;85.70;;;7.35;59.28;95930.41;10404329;28;2150;-85
2021/04/25 05:26:17;;;;;;;;;;;8.90;85.10;;;7.62;57.74;95937.66;10420228;28;2039;-85
2021/04/25 05:31:19;;;;;;;;;;;9.30;83.90;;;7.82;58.12;95943.22;10392135;28;2102;-86
2021/04/25 05:36:21;;;;;;;;;;;8.50;82.70;;;7.36;58.64;95948.06;10387132;28;1455;-84
2021/04/25 05:41:23;;;;;;;;;;;9.00;82.20;;;7.38;58.87;95945.97;10392438;28;2024;-85
2021/04/25 05:46:25;;;;;;;;;;;9.00;82.80;;;7.37;59.43;95964.91;10394503;28;2188;-84
2021/04/25 05:51:27;;;;;;;;;;;8.30;83.10;;;7.29;59.73;95963.47;10388743;28;2106;-85
2021/04/25 05:56:30;;;;;;;;;;;9.10;83.70;;;7.09;60.30;95968.56;10404299;28;2177;-84
2021/04/25 06:01:32;;;;;;;;;;;8.40;82.90;;;7.38;59.24;95969.19;10431437;28;1837;-84
2021/04/25 06:06:34;;;;;;;;;;;8.40;82.90;;;7.65;59.18;95969.28;10421689;28;1865;-83
2021/04/25 06:11:36;;;;;;;;;;;8.40;83.00;;;7.58;58.93;95974.81;10411088;28;2048;-84
2021/04/25 06:16:38;;;;;;;;;;;8.60;82.30;;;8.10;57.40;95967.09;10402287;28;1973;-85
2021/04/25 06:21:40;;;;;;;;;;;8.90;82.10;;;8.29;56.60;95962.16;10422774;28;1982;-85
2021/04/25 06:26:42;;;;;;;;;;;10.00;81.40;;;8.47;55.58;95969.06;10411931;28;2024;-87
2021/04/25 06:31:44;;;;;;;;;;;9.30;80.10;;;8.93;54.59;95972.09;10418851;28;2360;-86
2021/04/25 06:36:47;;;;;;;;;;;9.60;79.60;;;8.61;55.50;95980.97;10428050;28;2021;-85
2021/04/25 06:41:49;;;;;;;;;;;9.70;79.40;;;8.47;55.92;95984.34;10412294;28;1882;-84
2021/04/25 06:46:52;;;;;;;;;;;10.70;80.00;;;8.60;55.58;95982.03;10439946;28;2171;-86
2021/04/25 06:51:54;;;;;;;;;;;9.50;79.90;;;9.11;53.73;95987.75;10459443;28;1957;-89
2021/04/25 06:56:56;;;;;;;;;;;10.90;79.70;;;9.14;53.44;96002.50;10440143;28;1957;-85
2021/04/25 07:02:00;;;;;;;;;;;10.20;77.40;;;9.46;52.51;95999.75;10458145;28;1842;-86
2021/04/25 07:07:02;;;;;;;;;;;10.30;76.90;;;10.07;50.49;96001.88;10404974;28;2059;-86
2021/04/25 07:12:04;;;;;;;;;;;10.60;76.10;;;9.82;50.89;95999.91;10404785;28;1982;-85
2021/04/25 07:17:07;;;;;;;;;;;10.80;75.00;;;9.98;49.09;96004.25;10435706;28;1975;-84
2021/04/25 07:22:10;;;;;;;;;;;11.00;73.70;;;10.24;49.19;95994.41;10450264;28;2026;-84
2021/04/25 07:27:13;;;;;;;;;;;11.20;73.30;;;10.68;47.92;95989.34;10425562;28;1890;-87
2021/04/25 07:32:16;;;;;;;;;;;11.40;72.50;;;11.08;46.64;95995.81;10426104;28;2129;-86
2021/04/25 07:37:21;;;;;;;;;;;11.80;71.50;;;10.99;46.82;96000.09;10435652;28;1916;-84
2021/04/25 07:42:23;;;;;;;;;;;12.20;70.60;;;11.00;46.83;96005.22;10422527;28;2067;-83
2021/04/25 07:47:25;;;;;;;;;;;12.00;70.50;;;11.26;45.88;96008.69;10433286;28;1721;-83
2021/04/25 07:52:27;;;;;;;;;;;12.20;69.80;;;11.29;45.63;96008.13;10433642;28;2195;-83
2021/04/25 07:57:29;;;;;;;;;;;12.40;69.00;;;11.74;44.27;96000.22;10409061;28;2054;-83
2021/04/25 08:02:31;;;;;;;;;;;12.60;68.60;;;11.73;44.59;96001.31;10395387;28;2042;-84
2021/04/25 08:07:33;;;;;;;;;;;12.70;68.20;;;11.81;44.57;96004.25;10398786;28;1987;-84
2021/04/25 08:12:35;;;;;;;;;;;12.80;67.90;;;12.18;42.81;95995.72;10389686;28;2032;-83
2021/04/25 08:17:37;;;;;;;;;;;13.00;67.30;;;12.53;42.08;95993.09;10412635;28;2060;-82
2021/04/25 08:22:39;;;;;;;;;;;13.40;65.70;;;12.44;43.45;95996.38;10412953;28;2257;-83
2021/04/25 08:27:41;;;;;;;;;;;13.50;66.30;;;12.66;43.95;96005.94;10417594;28;1981;-83
2021/04/25 08:32:43;;;;;;;;;;;13.60;66.70;;;12.82;42.36;95999.34;10406940;28;1992;-83
2021/04/25 08:37:45;;;;;;;;;;;13.80;65.70;;;12.90;42.34;95995.22;10390181;28;1967;-85
2021/04/25 08:42:47;;;;;;;;;;;13.90;65.30;;;13.20;42.38;96003.09;10424285;28;2138;-83
2021/04/25 08:47:50;;;;;;;;;;;14.10;65.70;;;12.62;41.77;95996.81;10393400;28;2214;-84
2021/04/25 08:52:59;;;;;;;;;;;14.00;64.50;;;12.49;42.37;95992.84;10396869;28;2078;-84
2021/04/25 08:58:14;;;;;;;;;;;13.70;64.90;;;12.32;43.40;95987.81;10394979;28;2130;-81
2021/04/25 09:03:16;;;;;;;;;;;13.60;65.10;;;12.41;42.91;95991.56;10397313;28;1977;-82
2021/04/25 09:08:18;;;;;;;;;;;13.50;65.70;;;12.39;42.60;95993.72;10412025;28;2065;-83
2021/04/25 09:13:22;;;;;;;;;;;13.60;65.40;;;12.92;41.01;95985.78;10412614;28;2132;-83
2021/04/25 09:18:24;;;;;;;;;;;13.70;65.10;;;13.25;40.83;95994.16;10438445;28;1865;-85
2021/04/25 09:23:26;;;;;;;;;;;14.20;64.40;;;12.81;41.37;95991.53;10406552;28;1909;-84
2021/04/25 09:28:28;;;;;;;;;;;14.00;64.10;;;13.36;40.31;95986.72;10417486;28;1966;-83
2021/04/25 09:33:30;;;;;;;;;;;14.10;64.20;;;12.74;42.66;95982.97;10406911;28;2036;-80
2021/04/25 09:38:31;;;;;;;;;;;14.10;64.50;;;13.66;41.03;95988.31;10392810;28;2143;-83
2021/04/25 09:43:33;;;;;;;;;;;14.40;64.50;;;13.88;39.87;95979.69;10404796;28;1969;-84
2021/04/25 09:48:35;;;;;;;;;;;14.70;63.60;;;13.39;40.58;95989.69;10434469;28;2090;-83
2021/04/25 09:53:37;;;;;;;;;;;14.60;62.50;;;13.69;39.70;95980.44;10419183;28;1958;-84
2021/04/25 09:58:39;;;;;;;;;;;14.70;62.50;;;13.71;40.95;95975.56;10423273;28;2100;-84
2021/04/25 10:03:47;;;;;;;;;;;14.80;63.30;;;13.68;39.33;95980.75;10398732;28;2075;-85
2021/04/25 10:08:50;;;;;;;;;;;14.90;61.90;;;13.17;40.61;95973.97;10425579;28;2119;-86
2021/04/25 10:13:52;;;;;;;;;;;14.60;62.20;;;13.81;39.23;95973.84;10427231;28;2039;-84
2021/04/25 10:18:54;;;;;;;;;;;14.70;62.40;;;13.73;40.40;95983.38;10404796;28;2061;-84
2021/04/25 10:23:58;;;;;;;;;;;14.90;62.70;;;14.00;39.50;95980.09;10417726;28;1910;-84
2021/04/25 10:29:00;;;;;;;;;;;15.00;61.80;;;14.19;38.83;95975.50;10403823;28;1866;-83
2021/04/25 10:34:02;;;;;;;;;;;15.20;61.80;;;14.42;38.12;95973.00;10427147;28;1960;-84
2021/04/25 10:39:05;;;;;;;;;;;15.50;61.00;;;13.95;39.67;95972.03;10406482;28;2004;-83
2021/04/25 10:44:07;;;;;;;;;;;15.30;61.20;;;13.74;39.22;95968.75;10429154;28;1337;-84
2021/04/25 10:49:09;;;;;;;;;;;15.10;61.20;;;14.53;38.60;95959.06;10426256;28;1946;-84
2021/04/25 10:54:31;;;;;;;;;;;15.30;62.00;;;15.17;37.23;95942.31;10431309;28;2014;-85
2021/04/25 10:59:33;;;;;;;;;;;16.00;60.70;;;14.69;38.95;95954.22;10410454;28;1612;-84
2021/04/25 11:04:35;;;;;;;;;;;16.00;60.60;;;14.26;38.08;95962.41;10410842;28;1960;-82
2021/04/25 11:09:37;;;;;;;;;;;15.60;59.60;;;13.87;38.99;95951.88;10428183;28;2428;-83
2021/04/25 11:14:38;;;;;;;;;;;15.10;60.70;;;13.58;38.85;95953.84;10403219;28;1983;-84
2021/04/25 11:19:40;;;;;;;;;;;15.00;60.00;;;14.19;38.09;95955.78;10408305;28;1969;-83
2021/04/25 11:24:42;;;;;;;;;;;15.10;60.30;;;14.30;37.63;95949.09;10413198;28;1801;-85
2021/04/25 11:29:45;;;;;;;;;;;15.20;60.20;;;14.36;37.24;95953.34;10408994;28;2020;-84
2021/04/25 11:34:47;;;;;;;;;;;15.30;59.60;;;14.23;37.98;95948.66;10443062;28;1969;-85
2021/04/25 11:39:52;;;;;;;;;;;15.20;60.20;;;13.96;37.97;95960.94;10411143;28;1636;-84
2021/04/25 11:44:53;;;;;;;;;;;15.10;59.90;;;14.06;36.16;95960.81;10433314;28;1840;-84
2021/04/25 11:49:55;;;;;;;;;;;15.00;58.50;;;13.92;37.26;95961.78;10411935;28;1710;-82
2021/04/25 11:54:57;;;;;;;;;;;15.20;58.40;;;13.73;37.21;95954.44;10393689;28;1983;-84
2021/04/25 11:59:59;;;;;;;;;;;14.90;59.30;;;13.92;37.29;95957.19;10426180;28;1997;-84
2021/04/25 12:05:01;;;;;;;;;;;15.00;59.30;;;13.72;37.17;95960.94;10425000;28;1742;-84
2021/04/25 12:10:03;;;;;;;;;;;14.90;58.60;;;13.71;35.97;95950.44;10428506;28;2058;-84
2021/04/25 12:15:05;;;;;;;;;;;14.70;57.90;;;14.12;35.56;95945.28;10392518;28;1969;-84
2021/04/25 12:20:07;;;;;;;;;;;14.90;57.70;;;14.15;35.15;95952.84;10397035;28;2047;-82
2021/04/25 12:25:09;;;;;;;;;;;15.20;56.80;;;14.06;34.84;95936.47;10419682;28;2124;-83
2021/04/25 12:30:10;;;;;;;;;;;15.20;56.60;;;14.23;34.14;95940.56;10424177;28;2062;-84
2021/04/25 12:35:12;;;;;;;;;;;15.30;55.90;;;14.21;34.00;95937.34;10442579;28;1952;-84
2021/04/25 12:40:14;;;;;;;;;;;15.30;55.40;;;14.38;32.70;95945.75;10446264;28;1906;-84
2021/04/25 12:45:16;;;;;;;;;;;15.40;54.60;;;14.62;30.88;95920.53;10426952;28;1936;-83
2021/04/25 12:50:18;;;;;;;;;;;15.60;52.70;;;14.85;30.51;95927.72;10436120;28;1912;-82
2021/04/25 12:55:20;;;;;;;;;;;15.80;52.50;;;14.87;28.92;95937.13;10427281;28;1960;-84
2021/04/25 13:00:22;;;;;;;;;;;16.00;50.50;;;14.53;30.78;95929.31;10409319;28;2077;-84
2021/04/25 13:05:23;;;;;;;;;;;15.70;51.80;;;14.72;31.12;95929.28;10404193;28;2500;-84
2021/04/25 13:10:34;;;;;;;;;;;15.80;52.30;;;14.77;31.12;95923.00;10384691;28;2073;-83
2021/04/25 13:15:36;;;;;;;;;;;15.80;52.10;;;14.66;29.62;95921.56;10417528;28;2287;-84
2021/04/25 13:20:38;;;;;;;;;;;15.80;50.90;;;14.92;28.42;95920.03;10408743;28;2281;-84
2021/04/25 13:25:40;;;;;;;;;;;16.00;49.60;;;14.97;29.17;95916.44;10405356;28;2251;-83
2021/04/25 13:30:42;;;;;;;;;;;16.00;50.50;;;14.60;28.01;95913.50;10420953;28;2109;-84
2021/04/25 13:35:44;;;;;;;;;;;15.70;48.60;;;14.74;28.24;95907.34;10398883;28;2132;-84
2021/04/25 13:40:46;;;;;;;;;;;15.80;49.10;;;15.08;28.46;95899.72;10410031;28;2055;-83
2021/04/25 13:45:48;;;;;;;;;;;16.00;49.60;;;14.81;28.47;95905.84;10419817;28;2026;-85
2021/04/25 13:50:50;;;;;;;;;;;16.10;48.70;;;14.79;27.36;95891.81;10430900;28;2024;-84
2021/04/25 13:55:52;;;;;;;;;;;15.90;48.20;;;14.68;27.92;95895.00;10430301;28;2081;-84
2021/04/25 14:00:54;;;;;;;;;;;15.80;48.30;;;14.94;28.62;95887.22;10418940;28;2063;-84
2021/04/25 14:05:56;;;;;;;;;;;15.80;49.40;;;14.94;29.99;95879.91;10411545;28;2398;-85
2021/04/25 14:10:58;;;;;;;;;;;16.00;50.60;;;15.02;29.48;95876.53;10426520;28;1964;-84
2021/04/25 14:16:00;;;;;;;;;;;16.10;50.20;;;15.00;30.24;95876.00;10442193;28;2403;-83
2021/04/25 14:21:02;;;;;;;;;;;16.20;50.70;;;14.75;29.84;95868.34;10443383;28;2129;-84
2021/04/25 14:26:05;;;;;;;;;;;16.00;50.10;;;15.25;28.63;95874.72;10419183;28;2167;-82
2021/04/25 14:31:07;;;;;;;;;;;16.10;49.80;;;15.32;28.12;95877.03;10423995;28;2380;-85
2021/04/25 14:36:08;;;;;;;;;;;16.10;49.10;;;15.23;27.28;95874.25;10420523;28;2115;-86
2021/04/25 14:41:11;;;;;;;;;;;16.20;48.10;;;15.35;27.14;95871.03;10444574;28;2032;-82
2021/04/25 14:46:13;;;;;;;;;;;16.30;47.90;;;15.05;28.06;95875.91;10405520;28;1948;-84
2021/04/25 14:51:15;;;;;;;;;;;16.40;48.10;;;14.93;28.24;95875.59;10393333;28;2171;-83
2021/04/25 14:56:17;;;;;;;;;;;16.20;48.20;;;15.30;28.20;95871.13;10426621;28;2035;-83
2021/04/25 15:01:19;;;;;;;;;;;16.30;48.60;;;15.25;28.27;95865.81;10417050;28;2106;-83
2021/04/25 15:06:22;;;;;;;;;;;16.20;48.60;;;15.43;27.53;95861.41;10419119;28;2020;-84
2021/04/25 15:11:24;;;;;;;;;;;16.40;48.20;;;15.08;27.14;95856.38;10403877;28;2059;-82
2021/04/25 15:16:34;;;;;;;;;;;16.30;47.40;;;15.25;27.12;95860.38;10420866;28;2004;-81
2021/04/25 15:21:36;;;;;;;;;;;16.20;47.60;;;14.85;27.82;95868.19;10451406;28;1974;-84
2021/04/25 15:26:38;;;;;;;;;;;16.20;47.60;;;14.71;28.58;95878.19;10434186;28;1834;-83
2021/04/25 15:31:40;;;;;;;;;;;15.80;48.40;;;14.65;28.39;95873.97;10435573;28;2029;-86
2021/04/25 15:36:43;;;;;;;;;;;15.70;48.40;;;14.58;27.65;95869.72;10442484;28;2221;-84
2021/04/25 15:41:45;;;;;;;;;;;15.70;47.60;;;14.61;27.71;95873.72;10426432;28;1935;-84
2021/04/25 15:46:47;;;;;;;;;;;15.60;47.80;;;14.38;27.09;95874.63;10424531;28;1996;-84
2021/04/25 15:51:49;;;;;;;;;;;15.60;47.00;;;14.26;27.59;95873.19;10440857;28;2019;-84
2021/04/25 15:56:54;;;;;;;;;;;14.00;46.30;;;14.16;26.39;95870.63;10447628;28;1922;-84
2021/04/25 16:01:56;;;;;;;;;;;15.20;46.70;;;14.11;26.39;95869.91;10424660;28;2025;-86
2021/04/25 16:06:58;;;;;;;;;;;15.10;46.40;;;13.99;26.66;95879.25;10415286;28;2034;-87
2021/04/25 16:12:00;;;;;;;;;;;15.10;46.20;;;13.76;26.79;95866.63;10422018;28;2095;-84
2021/04/25 16:17:02;;;;;;;;;;;14.90;46.30;;;13.50;26.19;95871.56;10427685;28;1546;-83
2021/04/25 16:22:05;;;;;;;;;;;14.60;45.60;;;13.42;26.07;95869.47;10429512;28;1288;-85
2021/04/25 16:27:08;;;;;;;;;;;14.40;45.80;;;13.39;25.83;95873.56;10410155;28;1685;-85
2021/04/25 16:32:13;;;;;;;;;;;14.40;45.90;;;13.26;26.13;95887.78;10432849;28;1890;-82
2021/04/25 16:37:15;;;;;;;;;;;14.30;45.60;;;13.07;26.10;95873.38;10424970;28;1599;-82
2021/04/25 16:42:17;;;;;;;;;;;14.10;45.40;;;13.16;25.81;95874.34;10432215;28;1606;-80
2021/04/25 16:47:19;;;;;;;;;;;14.10;45.50;;;13.01;25.88;95879.94;10437219;28;1742;-84
2021/04/25 16:52:21;;;;;;;;;;;14.00;45.10;;;12.92;25.14;95877.06;10430607;28;1891;-79
2021/04/25 16:57:23;;;;;;;;;;;13.90;44.80;;;12.84;25.59;95875.75;10412711;28;2046;-82
2021/04/25 17:02:25;;;;;;;;;;;13.90;44.80;;;12.70;25.52;95881.03;10407396;28;1918;-82
2021/04/25 17:07:29;;;;;;;;;;;13.70;44.60;;;12.61;25.17;95881.94;10415467;28;1654;-80
2021/04/25 17:12:31;;;;;;;;;;;13.60;44.50;;;12.57;24.86;95886.28;10419605;28;2127;-81
2021/04/25 17:17:33;;;;;;;;;;;13.60;44.10;;;12.47;25.16;95875.56;10421895;28;2023;-83
2021/04/25 17:22:35;;;;;;;;;;;13.50;44.50;;;12.39;24.60;95879.69;10417149;28;1869;-82
2021/04/25 17:27:38;;;;;;;;;;;13.40;44.30;;;12.26;24.17;95877.63;10413566;28;1889;-82
2021/04/25 17:32:40;;;;;;;;;;;14.20;43.80;;;12.12;24.61;95874.78;10431803;28;2399;-80
2021/04/25 17:37:42;;;;;;;;;;;13.20;43.70;;;12.05;24.36;95868.91;10458089;28;1189;-82
2021/04/25 17:42:44;;;;;;;;;;;13.10;43.80;;;11.98;24.33;95880.00;10445207;28;1953;-84
2021/04/25 17:47:46;;;;;;;;;;;13.00;43.50;;;11.79;24.80;95874.41;10423590;28;1887;-80
2021/04/25 17:52:48;;;;;;;;;;;12.90;43.80;;;11.72;25.66;95879.31;10428814;28;1910;-85
2021/04/25 17:57:50;;;;;;;;;;;14.20;45.20;;;11.69;25.55;95882.53;10421859;28;1973;-82
2021/04/25 18:02:52;;;;;;;;;;;12.70;44.80;;;11.54;26.83;95880.75;10410615;28;1745;-83
2021/04/25 18:07:54;;;;;;;;;;;12.60;45.50;;;11.42;27.73;95885.66;10396852;28;1929;-84
2021/04/25 18:12:56;;;;;;;;;;;12.50;46.30;;;11.44;27.87;95885.38;10410114;28;1996;-83
2021/04/25 18:17:59;;;;;;;;;;;12.40;47.10;;;11.15;28.66;95894.09;10416576;28;1884;-81
2021/04/25 18:23:01;;;;;;;;;;;12.30;47.50;;;11.03;29.52;95890.91;10407665;28;1953;-84
2021/04/25 18:28:03;;;;;;;;;;;12.20;48.20;;;10.96;29.74;95901.13;10405204;28;1842;-84
2021/04/25 18:33:21;;;;;;;;;;;12.00;48.70;;;10.73;30.95;95903.31;10422404;28;1973;-84
2021/04/25 18:38:23;;;;;;;;;;;11.90;49.50;;;10.67;31.02;95915.16;10427843;28;1809;-84
2021/04/25 18:43:25;;;;;;;;;;;11.70;50.10;;;10.61;31.31;95915.44;10421045;28;2010;-83
2021/04/25 18:48:27;;;;;;;;;;;11.70;50.40;;;10.55;31.15;95923.50;10446812;28;1879;-81
2021/04/25 18:53:29;;;;;;;;;;;11.60;50.40;;;10.42;30.94;95931.28;10452694;28;1889;-84
2021/04/25 18:58:35;;;;;;;;;;;11.50;50.20;;;10.24;31.57;95928.06;10435346;28;1967;-84
2021/04/25 19:03:37;;;;;;;;;;;11.30;50.50;;;10.07;31.81;95930.16;10422348;28;1600;-84
2021/04/25 19:08:39;;;;;;;;;;;11.20;50.80;;;10.12;31.26;95935.53;10402312;28;1727;-81
2021/04/25 19:13:41;;;;;;;;;;;11.10;50.50;;;10.07;31.22;95940.09;10404727;28;1890;-83
2021/04/25 19:18:43;;;;;;;;;;;11.10;50.60;;;10.00;31.51;95949.22;10416722;28;2038;-82
2021/04/25 19:23:44;;;;;;;;;;;11.00;50.40;;;9.86;31.66;95941.91;10414999;28;1553;-82
2021/04/25 19:28:46;;;;;;;;;;;11.00;50.70;;;9.64;31.93;95948.31;10432387;28;1643;-81
2021/04/25 19:33:49;;;;;;;;;;;10.80;51.00;;;9.52;32.99;95947.72;10400820;28;2021;-82
2021/04/25 19:38:52;;;;;;;;;;;10.60;51.40;;;9.27;32.91;95950.28;10394516;28;1880;-82
2021/04/25 19:43:54;;;;;;;;;;;10.50;52.00;;;9.42;32.98;95943.13;10404105;28;2071;-82
2021/04/25 19:48:56;;;;;;;;;;;10.40;51.90;;;9.34;32.94;95950.84;10408257;28;2332;-80
2021/04/25 19:53:58;;;;;;;;;;;10.40;52.10;;;9.31;33.32;95951.38;10418667;28;2178;-82
2021/04/25 19:59:00;;;;;;;;;;;10.30;52.40;;;9.22;33.10;95953.72;10407240;28;1850;-83
2021/04/25 20:04:02;;;;;;;;;;;10.40;52.50;;;9.12;33.80;95943.78;10425630;28;1947;-82
2021/04/25 20:09:04;;;;;;;;;;;10.30;52.70;;;9.10;34.03;95953.97;10419252;28;2432;-84
2021/04/25 20:14:06;;;;;;;;;;;10.20;53.00;;;9.12;34.45;95957.19;10398989;28;1977;-84
2021/04/25 20:19:08;;;;;;;;;;;10.20;53.20;;;9.02;35.51;95957.13;10385413;28;2063;-84
2021/04/25 20:24:27;;;;;;;;;;;10.00;53.70;;;8.98;34.51;95958.72;10395509;28;2023;-84
2021/04/25 20:29:30;;;;;;;;;;;10.00;53.70;;;8.69;35.49;95946.72;10386739;28;2250;-82
2021/04/25 20:34:31;;;;;;;;;;;9.90;54.20;;;8.56;36.79;95943.41;10396043;28;2067;-82
2021/04/25 20:39:33;;;;;;;;;;;10.50;55.60;;;8.46;37.48;95940.66;10401326;28;2142;-83
2021/04/25 20:44:35;;;;;;;;;;;9.60;56.20;;;8.43;37.91;95946.50;10391150;28;2059;-81
2021/04/25 20:49:37;;;;;;;;;;;10.20;56.90;;;8.36;38.29;95940.56;10394922;28;2064;-84
2021/04/25 20:54:39;;;;;;;;;;;9.50;57.20;;;8.18;39.24;95939.03;10387239;28;2036;-84
2021/04/25 20:59:41;;;;;;;;;;;10.50;58.60;;;8.07;40.06;95938.13;10375197;28;2078;-84
2021/04/25 21:04:42;;;;;;;;;;;9.30;58.90;;;7.95;40.27;95940.16;10398411;28;2427;-83
2021/04/25 21:09:44;;;;;;;;;;;9.40;59.00;;;7.75;41.20;95937.25;10420798;28;2326;-82
2021/04/25 21:14:47;;;;;;;;;;;9.00;59.40;;;7.70;41.51;95942.56;10408889;28;1981;-83
2021/04/25 21:19:48;;;;;;;;;;;9.10;60.10;;;7.77;41.35;95919.91;10396619;28;1995;-84
2021/04/25 21:24:50;;;;;;;;;;;8.80;60.40;;;7.84;41.14;95909.00;10416592;28;1923;-83
2021/04/25 21:29:52;;;;;;;;;;;8.80;60.40;;;7.85;41.37;95887.34;10400097;28;1968;-83
2021/04/25 21:34:54;;;;;;;;;;;8.90;60.70;;;7.78;41.44;95888.59;10402444;28;2022;-84
2021/04/25 21:39:57;;;;;;;;;;;8.90;60.70;;;7.69;40.93;95893.59;10424890;28;1981;-84
2021/04/25 21:44:59;;;;;;;;;;;8.80;60.50;;;7.63;41.38;95894.59;10413047;28;2017;-83
2021/04/25 21:50:01;;;;;;;;;;;9.70;61.30;;;7.52;41.72;95899.03;10428257;28;1484;-83
2021/04/25 21:55:03;;;;;;;;;;;8.60;60.90;;;7.36;41.79;95893.75;10409792;28;1934;-84
2021/04/25 22:00:07;;;;;;;;;;;9.80;61.70;;;7.29;42.40;95888.59;10410963;28;2005;-85
2021/04/25 22:05:09;;;;;;;;;;;9.40;62.10;;;7.26;42.59;95889.13;10412232;28;1951;-83
2021/04/25 22:10:18;;;;;;;;;;;9.80;62.50;;;7.27;42.35;95878.16;10450893;28;1969;-84
2021/04/25 22:15:20;;;;;;;;;;;8.30;62.00;;;7.08;43.08;95876.06;10410080;28;2012;-82
2021/04/25 22:20:22;;;;;;;;;;;9.70;63.40;;;6.93;43.76;95874.78;10428334;28;1968;-83
2021/04/25 22:25:24;;;;;;;;;;;9.10;63.60;;;7.03;43.47;95864.25;10421716;28;2004;-82
2021/04/25 22:30:26;;;;;;;;;;;9.10;63.80;;;6.91;43.84;95866.22;10422418;28;1728;-83
2021/04/25 22:35:28;;;;;;;;;;;8.00;63.20;;;6.79;44.32;95873.53;10433172;28;2016;-84
2021/04/25 22:40:30;;;;;;;;;;;7.90;63.30;;;6.83;44.00;95879.22;10423725;28;2028;-84
2021/04/25 22:45:34;;;;;;;;;;;7.80;63.60;;;6.78;43.82;95872.75;10431996;28;2021;-83
2021/04/25 22:50:36;;;;;;;;;;;7.80;63.60;;;6.69;44.84;95871.56;10425824;28;1895;-84
2021/04/25 22:55:38;;;;;;;;;;;8.60;64.30;;;6.62;44.73;95859.44;10411191;28;2035;-83
2021/04/25 23:00:39;;;;;;;;;;;9.00;64.80;;;6.62;44.88;95862.91;10424916;28;1965;-83
2021/04/25 23:05:41;;;;;;;;;;;7.70;64.50;;;6.62;44.87;95872.78;10419597;28;1769;-84
2021/04/25 23:10:43;;;;;;;;;;;7.60;64.80;;;6.53;45.91;95874.25;10403024;28;1835;-84
2021/04/25 23:15:45;;;;;;;;;;;8.70;65.90;;;6.62;45.36;95870.13;10415020;28;1922;-83
2021/04/25 23:20:47;;;;;;;;;;;7.60;65.30;;;6.43;45.94;95886.41;10418971;28;1813;-84
2021/04/25 23:25:53;;;;;;;;;;;7.50;65.70;;;6.27;46.51;95875.75;10405340;28;1991;-84